Argyle, NY

5:08 AM EST on February 01, 2015 (GMT -0500)
APRSWXNET Argyle NY US | Change Station
CLOSE
Current Station
Personal Weather Station
Location: Argyle, NY
Elevation: 282 ft
Nearby Weather Stations
Active Advisory: Winter Storm Warning

Elev 282 ft 43.24 °N, 73.49 °W | Updated 35 minutes ago

Overcast
Overcast
5 °F
Feels Like 5 °F
N
0
Wind Variable Wind from South
Gusts 0.0 mph

Today
High -- | Low -- °F
--% Chance of Precip.
Yesterday
High -- | Low -- °F
Precip. -- in
7:09 AM 5:05 PM
Waxing Gibbous, 94% visible
Pressure 30.16 in
Visibility 9.0 miles
Clouds Overcast 6000 ft
Windchill 5 °F
Dew Point 1 °F
Humidity 83%
Rainfall -999.00 in
Snow Depth Not available.
UV 0 out of 12
Pollen .10 out of 12
Air Quality Not available.
Flu Activity Not available.
METAR KGFL 010953Z AUTO 00000KT 9SM OVC060 M15/M19 A3011 RMK AO2 SNB07E30 SLP213 P0000 T11501189

More Conditions Fewer Conditions

Pressure 30.16 in
Visibility 9.0 miles
Clouds Overcast 6000 ft
Windchill 5 °F
Dew Point 1 °F
Humidity 83%
Rainfall -999.00 in
Snow Depth Not available.
UV 0 out of 12
Pollen .10 out of 12
Air Quality Not available.
Flu Activity Not available.
METAR KGFL 010953Z AUTO 00000KT 9SM OVC060 M15/M19 A3011 RMK AO2 SNB07E30 SLP213 P0000 T11501189

More Conditions Fewer Conditions

10-Day Weather Forecast

Almanac

Astronomy

Feb. 01, 2015 Rise Set
Actual Time
Civil Twilight
Nautical Twilight
Astronomical Twilight
Moon
Length of Visible Light
Length of Day
Tomorrow will be .
, % of the Moon is Illuminated

Today's Extremes

State Highs State Lows

Community

WunderPhotos

Upload Photos

1,792,330 photos uploaded!

WunderBlogs® & News

Nearby

Air Quality

  Air Quality AQ Index Pollutant
Not available.

Snow Depth

Station Depth Elevation

Earthquake Activity

City Distance Mag. Time & Date
Minimum magnitude displayed is 2.5.

Coastal Water Temperatures

Place Temperature

Nearby Weather Stations